sensor_id;sensor_type;location;lat;lon;timestamp;P1;durP1;ratioP1;P2;durP2;ratioP2
25950;SDS011;13748;52.240;6.002;2023-03-16T00:02:08;7.80;;;4.80;;
25950;SDS011;13748;52.240;6.002;2023-03-16T00:04:38;6.07;;;4.40;;
25950;SDS011;13748;52.240;6.002;2023-03-16T00:07:05;6.60;;;4.90;;
25950;SDS011;13748;52.240;6.002;2023-03-16T00:09:35;9.77;;;5.43;;
25950;SDS011;13748;52.240;6.002;2023-03-16T00:12:12;9.07;;;5.40;;
25950;SDS011;13748;52.240;6.002;2023-03-16T00:14:44;8.67;;;5.10;;
25950;SDS011;13748;52.240;6.002;2023-03-16T00:17:13;9.13;;;4.87;;
25950;SDS011;13748;52.240;6.002;2023-03-16T00:22:14;7.83;;;5.10;;
25950;SDS011;13748;52.240;6.002;2023-03-16T00:24:43;8.47;;;5.20;;
25950;SDS011;13748;52.240;6.002;2023-03-16T00:27:11;9.00;;;4.77;;
25950;SDS011;13748;52.240;6.002;2023-03-16T00:29:51;7.10;;;5.20;;
25950;SDS011;13748;52.240;6.002;2023-03-16T00:32:29;7.73;;;5.00;;
25950;SDS011;13748;52.240;6.002;2023-03-16T00:35:00;10.07;;;5.27;;
25950;SDS011;13748;52.240;6.002;2023-03-16T00:37:30;8.23;;;5.33;;
25950;SDS011;13748;52.240;6.002;2023-03-16T00:39:58;7.43;;;5.00;;
25950;SDS011;13748;52.240;6.002;2023-03-16T00:42:26;6.70;;;4.80;;
25950;SDS011;13748;52.240;6.002;2023-03-16T00:44:56;7.37;;;4.70;;
25950;SDS011;13748;52.240;6.002;2023-03-16T00:47:24;7.67;;;5.30;;
25950;SDS011;13748;52.240;6.002;2023-03-16T00:49:56;11.47;;;5.60;;
25950;SDS011;13748;52.240;6.002;2023-03-16T00:52:25;7.50;;;5.30;;
25950;SDS011;13748;52.240;6.002;2023-03-16T00:54:55;8.30;;;5.40;;
25950;SDS011;13748;52.240;6.002;2023-03-16T00:57:23;8.87;;;5.63;;
25950;SDS011;13748;52.240;6.002;2023-03-16T00:59:51;8.50;;;5.27;;
25950;SDS011;13748;52.240;6.002;2023-03-16T01:02:20;6.70;;;5.20;;
25950;SDS011;13748;52.240;6.002;2023-03-16T01:04:54;5.97;;;5.13;;
25950;SDS011;13748;52.240;6.002;2023-03-16T01:07:22;8.67;;;5.37;;
25950;SDS011;13748;52.240;6.002;2023-03-16T01:09:49;8.33;;;5.43;;
25950;SDS011;13748;52.240;6.002;2023-03-16T01:12:17;8.80;;;5.67;;
25950;SDS011;13748;52.240;6.002;2023-03-16T01:17:15;6.93;;;5.47;;
25950;SDS011;13748;52.240;6.002;2023-03-16T01:19:43;8.33;;;5.40;;
25950;SDS011;13748;52.240;6.002;2023-03-16T01:22:10;6.57;;;5.33;;
25950;SDS011;13748;52.240;6.002;2023-03-16T01:24:38;8.37;;;5.10;;
25950;SDS011;13748;52.240;6.002;2023-03-16T01:27:10;7.03;;;5.00;;
25950;SDS011;13748;52.240;6.002;2023-03-16T01:29:39;7.23;;;5.20;;
25950;SDS011;13748;52.240;6.002;2023-03-16T01:32:09;6.33;;;5.13;;
25950;SDS011;13748;52.240;6.002;2023-03-16T01:34:39;6.93;;;5.00;;
25950;SDS011;13748;52.240;6.002;2023-03-16T01:37:08;9.47;;;5.80;;
25950;SDS011;13748;52.240;6.002;2023-03-16T01:39:35;9.60;;;5.53;;
25950;SDS011;13748;52.240;6.002;2023-03-16T01:42:02;9.33;;;6.10;;
25950;SDS011;13748;52.240;6.002;2023-03-16T01:47:33;10.60;;;5.80;;
25950;SDS011;13748;52.240;6.002;2023-03-16T01:50:05;10.70;;;5.30;;
25950;SDS011;13748;52.240;6.002;2023-03-16T01:52:34;9.07;;;5.97;;
25950;SDS011;13748;52.240;6.002;2023-03-16T01:55:03;10.57;;;6.23;;
25950;SDS011;13748;52.240;6.002;2023-03-16T01:57:41;10.47;;;5.70;;
25950;SDS011;13748;52.240;6.002;2023-03-16T02:00:13;7.07;;;5.03;;
25950;SDS011;13748;52.240;6.002;2023-03-16T02:02:47;8.07;;;5.30;;
25950;SDS011;13748;52.240;6.002;2023-03-16T02:05:19;7.97;;;5.43;;
25950;SDS011;13748;52.240;6.002;2023-03-16T02:08:01;8.60;;;5.57;;
25950;SDS011;13748;52.240;6.002;2023-03-16T02:10:32;8.00;;;5.63;;
25950;SDS011;13748;52.240;6.002;2023-03-16T02:13:04;8.03;;;5.67;;
25950;SDS011;13748;52.240;6.002;2023-03-16T02:15:38;7.53;;;5.33;;
25950;SDS011;13748;52.240;6.002;2023-03-16T02:18:07;7.83;;;5.17;;
25950;SDS011;13748;52.240;6.002;2023-03-16T02:23:42;9.37;;;5.27;;
25950;SDS011;13748;52.240;6.002;2023-03-16T02:26:29;8.37;;;5.60;;
25950;SDS011;13748;52.240;6.002;2023-03-16T02:32:12;7.87;;;5.67;;
25950;SDS011;13748;52.240;6.002;2023-03-16T02:34:39;8.83;;;5.77;;
25950;SDS011;13748;52.240;6.002;2023-03-16T02:37:07;8.03;;;5.53;;
25950;SDS011;13748;52.240;6.002;2023-03-16T02:39:37;9.93;;;5.80;;
25950;SDS011;13748;52.240;6.002;2023-03-16T02:42:04;10.30;;;5.10;;
25950;SDS011;13748;52.240;6.002;2023-03-16T02:44:36;8.03;;;5.20;;
25950;SDS011;13748;52.240;6.002;2023-03-16T02:49:44;6.40;;;5.30;;
25950;SDS011;13748;52.240;6.002;2023-03-16T02:52:11;10.40;;;5.50;;
25950;SDS011;13748;52.240;6.002;2023-03-16T02:54:38;9.30;;;5.70;;
25950;SDS011;13748;52.240;6.002;2023-03-16T02:57:12;7.90;;;5.67;;
25950;SDS011;13748;52.240;6.002;2023-03-16T02:59:39;10.03;;;5.67;;
25950;SDS011;13748;52.240;6.002;2023-03-16T03:02:07;7.70;;;5.43;;
25950;SDS011;13748;52.240;6.002;2023-03-16T03:04:38;7.97;;;4.90;;
25950;SDS011;13748;52.240;6.002;2023-03-16T03:07:05;6.23;;;5.13;;
25950;SDS011;13748;52.240;6.002;2023-03-16T03:09:34;8.73;;;5.23;;
25950;SDS011;13748;52.240;6.002;2023-03-16T03:12:01;11.37;;;6.30;;
25950;SDS011;13748;52.240;6.002;2023-03-16T03:14:28;6.73;;;5.60;;
25950;SDS011;13748;52.240;6.002;2023-03-16T03:16:55;8.90;;;5.87;;
25950;SDS011;13748;52.240;6.002;2023-03-16T03:19:28;8.23;;;5.67;;
25950;SDS011;13748;52.240;6.002;2023-03-16T03:21:55;9.77;;;5.33;;
25950;SDS011;13748;52.240;6.002;2023-03-16T03:24:24;6.80;;;5.03;;
25950;SDS011;13748;52.240;6.002;2023-03-16T03:26:55;7.27;;;5.37;;
25950;SDS011;13748;52.240;6.002;2023-03-16T03:29:22;8.70;;;5.10;;
25950;SDS011;13748;52.240;6.002;2023-03-16T03:31:49;9.67;;;5.60;;
25950;SDS011;13748;52.240;6.002;2023-03-16T03:34:17;9.23;;;5.67;;
25950;SDS011;13748;52.240;6.002;2023-03-16T03:36:47;10.57;;;5.87;;
25950;SDS011;13748;52.240;6.002;2023-03-16T03:39:18;7.37;;;5.37;;
25950;SDS011;13748;52.240;6.002;2023-03-16T03:41:45;8.03;;;5.77;;
25950;SDS011;13748;52.240;6.002;2023-03-16T03:44:12;12.27;;;5.47;;
25950;SDS011;13748;52.240;6.002;2023-03-16T03:46:42;7.83;;;5.73;;
25950;SDS011;13748;52.240;6.002;2023-03-16T03:49:11;7.20;;;5.30;;
25950;SDS011;13748;52.240;6.002;2023-03-16T03:51:38;7.43;;;5.63;;
25950;SDS011;13748;52.240;6.002;2023-03-16T03:54:07;7.47;;;5.70;;
25950;SDS011;13748;52.240;6.002;2023-03-16T03:56:39;8.13;;;5.50;;
25950;SDS011;13748;52.240;6.002;2023-03-16T03:59:07;7.90;;;5.43;;
25950;SDS011;13748;52.240;6.002;2023-03-16T04:01:34;7.07;;;5.27;;
25950;SDS011;13748;52.240;6.002;2023-03-16T04:04:02;7.67;;;5.73;;
25950;SDS011;13748;52.240;6.002;2023-03-16T04:06:29;11.73;;;5.40;;
25950;SDS011;13748;52.240;6.002;2023-03-16T04:08:58;7.70;;;5.57;;
25950;SDS011;13748;52.240;6.002;2023-03-16T04:11:25;6.87;;;5.80;;
25950;SDS011;13748;52.240;6.002;2023-03-16T04:13:55;8.87;;;5.67;;
25950;SDS011;13748;52.240;6.002;2023-03-16T04:16:24;6.83;;;5.40;;
25950;SDS011;13748;52.240;6.002;2023-03-16T04:18:53;9.10;;;5.67;;
25950;SDS011;13748;52.240;6.002;2023-03-16T04:21:20;8.07;;;5.90;;
25950;SDS011;13748;52.240;6.002;2023-03-16T04:23:48;8.90;;;5.77;;
25950;SDS011;13748;52.240;6.002;2023-03-16T04:26:20;7.53;;;5.60;;
25950;SDS011;13748;52.240;6.002;2023-03-16T04:28:48;8.33;;;5.70;;
25950;SDS011;13748;52.240;6.002;2023-03-16T04:31:16;8.00;;;5.40;;
25950;SDS011;13748;52.240;6.002;2023-03-16T04:33:44;11.60;;;5.90;;
25950;SDS011;13748;52.240;6.002;2023-03-16T04:36:14;7.13;;;5.23;;
25950;SDS011;13748;52.240;6.002;2023-03-16T04:38:41;9.10;;;5.53;;
25950;SDS011;13748;52.240;6.002;2023-03-16T04:41:09;9.20;;;5.73;;
25950;SDS011;13748;52.240;6.002;2023-03-16T04:43:36;10.43;;;6.17;;
25950;SDS011;13748;52.240;6.002;2023-03-16T04:46:04;7.77;;;6.00;;
25950;SDS011;13748;52.240;6.002;2023-03-16T04:48:33;8.10;;;5.73;;
25950;SDS011;13748;52.240;6.002;2023-03-16T04:51:03;9.37;;;6.37;;
25950;SDS011;13748;52.240;6.002;2023-03-16T04:53:32;10.27;;;5.90;;
25950;SDS011;13748;52.240;6.002;2023-03-16T04:56:00;9.57;;;6.10;;
25950;SDS011;13748;52.240;6.002;2023-03-16T04:58:27;8.43;;;6.83;;
25950;SDS011;13748;52.240;6.002;2023-03-16T05:00:56;9.37;;;5.73;;
25950;SDS011;13748;52.240;6.002;2023-03-16T05:03:26;13.37;;;6.13;;
25950;SDS011;13748;52.240;6.002;2023-03-16T05:05:55;12.07;;;6.37;;
25950;SDS011;13748;52.240;6.002;2023-03-16T05:08:25;7.37;;;5.87;;
25950;SDS011;13748;52.240;6.002;2023-03-16T05:10:56;8.70;;;5.90;;
25950;SDS011;13748;52.240;6.002;2023-03-16T05:13:26;9.90;;;6.33;;
25950;SDS011;13748;52.240;6.002;2023-03-16T05:15:54;8.37;;;5.83;;
25950;SDS011;13748;52.240;6.002;2023-03-16T05:18:25;12.03;;;6.83;;
25950;SDS011;13748;52.240;6.002;2023-03-16T05:20:53;8.33;;;6.07;;
25950;SDS011;13748;52.240;6.002;2023-03-16T05:25:51;9.13;;;6.40;;
25950;SDS011;13748;52.240;6.002;2023-03-16T05:28:20;8.37;;;5.33;;
25950;SDS011;13748;52.240;6.002;2023-03-16T05:30:48;8.63;;;5.87;;
25950;SDS011;13748;52.240;6.002;2023-03-16T05:33:17;10.60;;;6.07;;
25950;SDS011;13748;52.240;6.002;2023-03-16T05:35:44;7.93;;;5.80;;
25950;SDS011;13748;52.240;6.002;2023-03-16T05:38:11;8.30;;;5.93;;
25950;SDS011;13748;52.240;6.002;2023-03-16T05:40:39;14.70;;;6.80;;
25950;SDS011;13748;52.240;6.002;2023-03-16T05:43:07;7.37;;;5.67;;
25950;SDS011;13748;52.240;6.002;2023-03-16T05:45:39;9.07;;;6.30;;
25950;SDS011;13748;52.240;6.002;2023-03-16T05:48:06;9.83;;;5.97;;
25950;SDS011;13748;52.240;6.002;2023-03-16T05:50:34;9.00;;;6.23;;
25950;SDS011;13748;52.240;6.002;2023-03-16T05:53:01;9.50;;;5.83;;
25950;SDS011;13748;52.240;6.002;2023-03-16T05:55:34;12.43;;;6.40;;
25950;SDS011;13748;52.240;6.002;2023-03-16T05:58:00;8.77;;;5.93;;
25950;SDS011;13748;52.240;6.002;2023-03-16T06:00:34;9.93;;;6.30;;
25950;SDS011;13748;52.240;6.002;2023-03-16T06:03:01;9.47;;;6.60;;
25950;SDS011;13748;52.240;6.002;2023-03-16T06:05:28;13.20;;;6.97;;
25950;SDS011;13748;52.240;6.002;2023-03-16T06:08:02;9.93;;;6.20;;
25950;SDS011;13748;52.240;6.002;2023-03-16T06:10:29;8.10;;;6.20;;
25950;SDS011;13748;52.240;6.002;2023-03-16T06:13:04;8.07;;;6.13;;
25950;SDS011;13748;52.240;6.002;2023-03-16T06:18:46;8.00;;;6.20;;
25950;SDS011;13748;52.240;6.002;2023-03-16T06:21:13;9.67;;;5.40;;
25950;SDS011;13748;52.240;6.002;2023-03-16T06:23:43;9.03;;;6.30;;
25950;SDS011;13748;52.240;6.002;2023-03-16T06:26:12;7.43;;;5.63;;
25950;SDS011;13748;52.240;6.002;2023-03-16T06:28:41;7.67;;;5.70;;
25950;SDS011;13748;52.240;6.002;2023-03-16T06:31:15;7.27;;;5.60;;
25950;SDS011;13748;52.240;6.002;2023-03-16T06:33:45;8.53;;;5.80;;
25950;SDS011;13748;52.240;6.002;2023-03-16T06:36:14;9.20;;;5.57;;
25950;SDS011;13748;52.240;6.002;2023-03-16T06:41:50;8.13;;;5.67;;
25950;SDS011;13748;52.240;6.002;2023-03-16T06:44:17;8.07;;;5.33;;
25950;SDS011;13748;52.240;6.002;2023-03-16T06:46:45;6.80;;;5.23;;
25950;SDS011;13748;52.240;6.002;2023-03-16T06:49:16;8.90;;;5.43;;
25950;SDS011;13748;52.240;6.002;2023-03-16T06:51:49;8.90;;;5.93;;
25950;SDS011;13748;52.240;6.002;2023-03-16T06:54:16;7.50;;;5.30;;
25950;SDS011;13748;52.240;6.002;2023-03-16T06:56:51;7.27;;;6.00;;
25950;SDS011;13748;52.240;6.002;2023-03-16T06:59:18;9.03;;;5.70;;
25950;SDS011;13748;52.240;6.002;2023-03-16T07:01:46;8.40;;;5.97;;
25950;SDS011;13748;52.240;6.002;2023-03-16T07:04:19;7.30;;;5.00;;
25950;SDS011;13748;52.240;6.002;2023-03-16T07:06:47;6.93;;;5.10;;
25950;SDS011;13748;52.240;6.002;2023-03-16T07:09:14;8.50;;;5.20;;
25950;SDS011;13748;52.240;6.002;2023-03-16T07:11:41;9.13;;;5.97;;
25950;SDS011;13748;52.240;6.002;2023-03-16T07:14:08;9.13;;;5.27;;
25950;SDS011;13748;52.240;6.002;2023-03-16T07:16:35;6.90;;;5.03;;
25950;SDS011;13748;52.240;6.002;2023-03-16T07:19:02;10.33;;;5.27;;
25950;SDS011;13748;52.240;6.002;2023-03-16T07:21:30;7.13;;;4.87;;
25950;SDS011;13748;52.240;6.002;2023-03-16T07:24:04;9.03;;;5.40;;
25950;SDS011;13748;52.240;6.002;2023-03-16T07:26:32;9.30;;;6.13;;
25950;SDS011;13748;52.240;6.002;2023-03-16T07:28:59;9.27;;;5.10;;
25950;SDS011;13748;52.240;6.002;2023-03-16T07:31:26;7.17;;;4.97;;
25950;SDS011;13748;52.240;6.002;2023-03-16T07:33:53;8.83;;;5.10;;
25950;SDS011;13748;52.240;6.002;2023-03-16T07:36:20;10.00;;;5.67;;
25950;SDS011;13748;52.240;6.002;2023-03-16T07:38:47;8.30;;;5.90;;
25950;SDS011;13748;52.240;6.002;2023-03-16T07:41:14;11.13;;;6.40;;
25950;SDS011;13748;52.240;6.002;2023-03-16T07:43:42;10.30;;;6.20;;
25950;SDS011;13748;52.240;6.002;2023-03-16T07:46:10;10.50;;;5.93;;
25950;SDS011;13748;52.240;6.002;2023-03-16T07:48:40;9.33;;;5.70;;
25950;SDS011;13748;52.240;6.002;2023-03-16T07:51:09;7.97;;;6.00;;
25950;SDS011;13748;52.240;6.002;2023-03-16T07:53:45;7.13;;;5.17;;
25950;SDS011;13748;52.240;6.002;2023-03-16T07:58:47;9.40;;;5.70;;
25950;SDS011;13748;52.240;6.002;2023-03-16T08:01:16;8.93;;;6.03;;
25950;SDS011;13748;52.240;6.002;2023-03-16T08:03:45;12.20;;;6.43;;
25950;SDS011;13748;52.240;6.002;2023-03-16T08:06:17;11.10;;;6.63;;
25950;SDS011;13748;52.240;6.002;2023-03-16T08:08:45;11.97;;;6.50;;
25950;SDS011;13748;52.240;6.002;2023-03-16T08:11:12;10.30;;;6.23;;
25950;SDS011;13748;52.240;6.002;2023-03-16T08:13:40;9.83;;;5.97;;
25950;SDS011;13748;52.240;6.002;2023-03-16T08:16:09;12.83;;;6.77;;
25950;SDS011;13748;52.240;6.002;2023-03-16T08:18:38;9.57;;;6.80;;
25950;SDS011;13748;52.240;6.002;2023-03-16T08:21:07;10.73;;;6.00;;
25950;SDS011;13748;52.240;6.002;2023-03-16T08:23:35;11.20;;;6.77;;
25950;SDS011;13748;52.240;6.002;2023-03-16T08:26:02;7.00;;;5.53;;
25950;SDS011;13748;52.240;6.002;2023-03-16T08:28:34;9.03;;;5.90;;
25950;SDS011;13748;52.240;6.002;2023-03-16T08:31:05;9.43;;;5.57;;
25950;SDS011;13748;52.240;6.002;2023-03-16T08:33:33;8.97;;;6.33;;
25950;SDS011;13748;52.240;6.002;2023-03-16T08:36:01;11.03;;;6.40;;
25950;SDS011;13748;52.240;6.002;2023-03-16T08:38:32;9.27;;;6.23;;
25950;SDS011;13748;52.240;6.002;2023-03-16T08:41:02;9.20;;;6.53;;
25950;SDS011;13748;52.240;6.002;2023-03-16T08:43:30;11.47;;;6.63;;
25950;SDS011;13748;52.240;6.002;2023-03-16T08:45:59;9.23;;;6.40;;
25950;SDS011;13748;52.240;6.002;2023-03-16T08:48:27;11.37;;;6.33;;
25950;SDS011;13748;52.240;6.002;2023-03-16T08:50:55;12.43;;;6.37;;
25950;SDS011;13748;52.240;6.002;2023-03-16T08:53:22;9.27;;;6.50;;
25950;SDS011;13748;52.240;6.002;2023-03-16T08:55:49;12.13;;;7.77;;
25950;SDS011;13748;52.240;6.002;2023-03-16T08:58:17;8.30;;;6.30;;
25950;SDS011;13748;52.240;6.002;2023-03-16T09:00:44;9.53;;;5.57;;
25950;SDS011;13748;52.240;6.002;2023-03-16T09:03:14;11.67;;;6.33;;
25950;SDS011;13748;52.240;6.002;2023-03-16T09:05:41;9.63;;;5.80;;
25950;SDS011;13748;52.240;6.002;2023-03-16T09:08:09;13.27;;;7.23;;
25950;SDS011;13748;52.240;6.002;2023-03-16T09:10:36;9.23;;;5.90;;
25950;SDS011;13748;52.240;6.002;2023-03-16T09:13:03;9.33;;;5.63;;
25950;SDS011;13748;52.240;6.002;2023-03-16T09:15:31;8.70;;;5.57;;
25950;SDS011;13748;52.240;6.002;2023-03-16T09:17:58;8.20;;;5.43;;
25950;SDS011;13748;52.240;6.002;2023-03-16T09:20:26;9.20;;;5.53;;
25950;SDS011;13748;52.240;6.002;2023-03-16T09:22:55;10.30;;;5.33;;
25950;SDS011;13748;52.240;6.002;2023-03-16T09:25:23;7.50;;;5.20;;
25950;SDS011;13748;52.240;6.002;2023-03-16T09:27:51;9.80;;;5.60;;
25950;SDS011;13748;52.240;6.002;2023-03-16T09:30:19;9.77;;;5.87;;
25950;SDS011;13748;52.240;6.002;2023-03-16T09:32:46;9.13;;;5.90;;
25950;SDS011;13748;52.240;6.002;2023-03-16T09:35:15;10.03;;;6.30;;
25950;SDS011;13748;52.240;6.002;2023-03-16T09:37:42;10.37;;;6.23;;
25950;SDS011;13748;52.240;6.002;2023-03-16T09:40:23;7.70;;;5.27;;
25950;SDS011;13748;52.240;6.002;2023-03-16T09:48:34;7.30;;;5.37;;
25950;SDS011;13748;52.240;6.002;2023-03-16T09:51:04;10.17;;;5.87;;
25950;SDS011;13748;52.240;6.002;2023-03-16T09:53:43;7.67;;;5.50;;
25950;SDS011;13748;52.240;6.002;2023-03-16T09:56:19;10.30;;;5.80;;
25950;SDS011;13748;52.240;6.002;2023-03-16T09:58:55;10.17;;;5.43;;
25950;SDS011;13748;52.240;6.002;2023-03-16T10:12:46;6.67;;;5.13;;
25950;SDS011;13748;52.240;6.002;2023-03-16T10:15:19;9.23;;;5.03;;
25950;SDS011;13748;52.240;6.002;2023-03-16T10:20:27;5.87;;;4.87;;
25950;SDS011;13748;52.240;6.002;2023-03-16T10:23:07;7.30;;;4.53;;
25950;SDS011;13748;52.240;6.002;2023-03-16T10:25:46;9.10;;;4.67;;
25950;SDS011;13748;52.240;6.002;2023-03-16T10:28:16;6.07;;;4.87;;
25950;SDS011;13748;52.240;6.002;2023-03-16T10:30:50;7.33;;;4.13;;
25950;SDS011;13748;52.240;6.002;2023-03-16T10:33:24;7.30;;;5.20;;
25950;SDS011;13748;52.240;6.002;2023-03-16T10:43:52;9.50;;;6.30;;
25950;SDS011;13748;52.240;6.002;2023-03-16T10:46:22;7.07;;;5.10;;
25950;SDS011;13748;52.240;6.002;2023-03-16T10:48:54;7.40;;;5.20;;
25950;SDS011;13748;52.240;6.002;2023-03-16T10:51:27;8.60;;;5.77;;
25950;SDS011;13748;52.240;6.002;2023-03-16T10:54:05;8.50;;;5.70;;
25950;SDS011;13748;52.240;6.002;2023-03-16T10:56:53;8.67;;;5.47;;
25950;SDS011;13748;52.240;6.002;2023-03-16T10:59:32;9.67;;;5.73;;
25950;SDS011;13748;52.240;6.002;2023-03-16T11:02:35;7.73;;;5.00;;
25950;SDS011;13748;52.240;6.002;2023-03-16T11:05:13;8.90;;;5.30;;
25950;SDS011;13748;52.240;6.002;2023-03-16T11:07:48;8.53;;;5.00;;
25950;SDS011;13748;52.240;6.002;2023-03-16T11:13:18;7.23;;;4.40;;
25950;SDS011;13748;52.240;6.002;2023-03-16T11:15:54;5.93;;;4.27;;
25950;SDS011;13748;52.240;6.002;2023-03-16T11:21:19;6.10;;;4.37;;
25950;SDS011;13748;52.240;6.002;2023-03-16T11:24:04;7.87;;;4.30;;
25950;SDS011;13748;52.240;6.002;2023-03-16T11:26:41;9.77;;;4.77;;
25950;SDS011;13748;52.240;6.002;2023-03-16T11:29:13;9.27;;;4.60;;
25950;SDS011;13748;52.240;6.002;2023-03-16T11:34:28;6.73;;;4.50;;
25950;SDS011;13748;52.240;6.002;2023-03-16T11:46:22;6.50;;;3.80;;
25950;SDS011;13748;52.240;6.002;2023-03-16T12:00:48;6.77;;;3.70;;
25950;SDS011;13748;52.240;6.002;2023-03-16T12:12:34;7.03;;;3.90;;
25950;SDS011;13748;52.240;6.002;2023-03-16T12:15:20;7.27;;;4.10;;
25950;SDS011;13748;52.240;6.002;2023-03-16T12:18:44;7.57;;;4.20;;
25950;SDS011;13748;52.240;6.002;2023-03-16T12:21:03;7.63;;;4.20;;
25950;SDS011;13748;52.240;6.002;2023-03-16T12:26:39;6.10;;;4.30;;
25950;SDS011;13748;52.240;6.002;2023-03-16T12:29:13;5.07;;;3.60;;
25950;SDS011;13748;52.240;6.002;2023-03-16T12:35:07;4.13;;;3.47;;
25950;SDS011;13748;52.240;6.002;2023-03-16T12:40:54;8.83;;;3.97;;
25950;SDS011;13748;52.240;6.002;2023-03-16T12:46:30;8.33;;;4.53;;
25950;SDS011;13748;52.240;6.002;2023-03-16T12:49:07;6.07;;;4.30;;
25950;SDS011;13748;52.240;6.002;2023-03-16T12:51:36;7.40;;;4.47;;
25950;SDS011;13748;52.240;6.002;2023-03-16T12:54:05;4.60;;;3.87;;
25950;SDS011;13748;52.240;6.002;2023-03-16T12:56:43;6.23;;;4.53;;
25950;SDS011;13748;52.240;6.002;2023-03-16T12:59:17;7.30;;;3.97;;
25950;SDS011;13748;52.240;6.002;2023-03-16T13:01:50;6.57;;;4.33;;
25950;SDS011;13748;52.240;6.002;2023-03-16T13:04:34;7.43;;;4.40;;
25950;SDS011;13748;52.240;6.002;2023-03-16T13:09:55;6.20;;;4.17;;
25950;SDS011;13748;52.240;6.002;2023-03-16T13:12:30;6.07;;;4.20;;
25950;SDS011;13748;52.240;6.002;2023-03-16T13:15:14;6.93;;;3.50;;
25950;SDS011;13748;52.240;6.002;2023-03-16T13:18:01;5.17;;;3.63;;
25950;SDS011;13748;52.240;6.002;2023-03-16T13:20:32;4.43;;;3.70;;
25950;SDS011;13748;52.240;6.002;2023-03-16T13:25:56;5.90;;;3.87;;
25950;SDS011;13748;52.240;6.002;2023-03-16T13:28:32;10.17;;;3.90;;
25950;SDS011;13748;52.240;6.002;2023-03-16T13:31:05;5.70;;;3.87;;
25950;SDS011;13748;52.240;6.002;2023-03-16T13:39:52;7.37;;;3.90;;
25950;SDS011;13748;52.240;6.002;2023-03-16T13:42:31;7.97;;;4.07;;
25950;SDS011;13748;52.240;6.002;2023-03-16T13:45:13;6.07;;;3.60;;
25950;SDS011;13748;52.240;6.002;2023-03-16T13:47:51;5.30;;;3.97;;
25950;SDS011;13748;52.240;6.002;2023-03-16T13:50:25;5.33;;;3.80;;
25950;SDS011;13748;52.240;6.002;2023-03-16T13:52:58;6.40;;;3.83;;
25950;SDS011;13748;52.240;6.002;2023-03-16T13:55:33;5.43;;;3.60;;
25950;SDS011;13748;52.240;6.002;2023-03-16T13:58:05;6.93;;;3.57;;
25950;SDS011;13748;52.240;6.002;2023-03-16T14:01:04;6.07;;;3.60;;
25950;SDS011;13748;52.240;6.002;2023-03-16T14:03:43;4.03;;;3.60;;
25950;SDS011;13748;52.240;6.002;2023-03-16T14:06:22;6.90;;;3.70;;
25950;SDS011;13748;52.240;6.002;2023-03-16T14:08:58;7.77;;;4.00;;
25950;SDS011;13748;52.240;6.002;2023-03-16T14:11:28;5.43;;;3.37;;
25950;SDS011;13748;52.240;6.002;2023-03-16T14:13:56;5.53;;;3.87;;
25950;SDS011;13748;52.240;6.002;2023-03-16T14:16:27;7.37;;;3.87;;
25950;SDS011;13748;52.240;6.002;2023-03-16T14:19:04;7.50;;;3.90;;
25950;SDS011;13748;52.240;6.002;2023-03-16T14:21:42;6.27;;;3.93;;
25950;SDS011;13748;52.240;6.002;2023-03-16T14:29:43;4.90;;;3.47;;
25950;SDS011;13748;52.240;6.002;2023-03-16T14:32:26;5.93;;;3.93;;
25950;SDS011;13748;52.240;6.002;2023-03-16T14:37:43;8.00;;;3.80;;
25950;SDS011;13748;52.240;6.002;2023-03-16T14:40:27;6.57;;;3.90;;
25950;SDS011;13748;52.240;6.002;2023-03-16T14:45:33;6.37;;;4.47;;
25950;SDS011;13748;52.240;6.002;2023-03-16T14:48:08;5.27;;;3.87;;
25950;SDS011;13748;52.240;6.002;2023-03-16T14:50:46;5.33;;;3.53;;
25950;SDS011;13748;52.240;6.002;2023-03-16T14:53:21;7.40;;;4.23;;
25950;SDS011;13748;52.240;6.002;2023-03-16T14:55:50;6.30;;;3.30;;
25950;SDS011;13748;52.240;6.002;2023-03-16T14:58:17;6.27;;;3.47;;
25950;SDS011;13748;52.240;6.002;2023-03-16T15:00:46;8.23;;;3.90;;
25950;SDS011;13748;52.240;6.002;2023-03-16T15:03:19;5.37;;;3.40;;
25950;SDS011;13748;52.240;6.002;2023-03-16T15:05:53;4.67;;;3.43;;
25950;SDS011;13748;52.240;6.002;2023-03-16T15:08:29;6.83;;;3.33;;
25950;SDS011;13748;52.240;6.002;2023-03-16T15:11:17;4.83;;;3.47;;
25950;SDS011;13748;52.240;6.002;2023-03-16T15:13:50;6.43;;;3.60;;
25950;SDS011;13748;52.240;6.002;2023-03-16T15:16:24;4.37;;;3.50;;
25950;SDS011;13748;52.240;6.002;2023-03-16T15:19:09;5.53;;;3.70;;
25950;SDS011;13748;52.240;6.002;2023-03-16T15:21:36;5.63;;;3.33;;
25950;SDS011;13748;52.240;6.002;2023-03-16T15:24:04;8.13;;;4.10;;
25950;SDS011;13748;52.240;6.002;2023-03-16T15:26:36;4.73;;;3.20;;
25950;SDS011;13748;52.240;6.002;2023-03-16T15:29:05;5.60;;;3.40;;
25950;SDS011;13748;52.240;6.002;2023-03-16T15:31:37;4.00;;;3.10;;
25950;SDS011;13748;52.240;6.002;2023-03-16T15:34:05;5.27;;;3.33;;
25950;SDS011;13748;52.240;6.002;2023-03-16T15:36:32;5.47;;;3.70;;
25950;SDS011;13748;52.240;6.002;2023-03-16T15:39:00;5.73;;;3.73;;
25950;SDS011;13748;52.240;6.002;2023-03-16T15:41:28;6.67;;;3.80;;
25950;SDS011;13748;52.240;6.002;2023-03-16T15:44:11;4.97;;;3.60;;
25950;SDS011;13748;52.240;6.002;2023-03-16T15:46:38;6.63;;;3.40;;
25950;SDS011;13748;52.240;6.002;2023-03-16T15:49:05;6.77;;;4.00;;
25950;SDS011;13748;52.240;6.002;2023-03-16T15:51:32;4.70;;;3.60;;
25950;SDS011;13748;52.240;6.002;2023-03-16T15:54:01;6.17;;;4.00;;
25950;SDS011;13748;52.240;6.002;2023-03-16T15:56:30;5.60;;;3.83;;
25950;SDS011;13748;52.240;6.002;2023-03-16T15:59:18;4.30;;;3.60;;
25950;SDS011;13748;52.240;6.002;2023-03-16T16:01:49;5.03;;;3.97;;
25950;SDS011;13748;52.240;6.002;2023-03-16T16:04:21;4.03;;;3.60;;
25950;SDS011;13748;52.240;6.002;2023-03-16T16:06:51;5.33;;;4.00;;
25950;SDS011;13748;52.240;6.002;2023-03-16T16:09:20;6.40;;;3.70;;
25950;SDS011;13748;52.240;6.002;2023-03-16T16:11:48;7.20;;;3.60;;
25950;SDS011;13748;52.240;6.002;2023-03-16T16:14:18;5.67;;;3.30;;
25950;SDS011;13748;52.240;6.002;2023-03-16T16:16:49;6.77;;;3.27;;
25950;SDS011;13748;52.240;6.002;2023-03-16T16:19:17;8.47;;;3.70;;
25950;SDS011;13748;52.240;6.002;2023-03-16T16:21:44;6.03;;;3.83;;
25950;SDS011;13748;52.240;6.002;2023-03-16T16:24:12;7.40;;;3.63;;
25950;SDS011;13748;52.240;6.002;2023-03-16T16:26:42;6.27;;;3.43;;
25950;SDS011;13748;52.240;6.002;2023-03-16T16:29:28;5.60;;;3.10;;
25950;SDS011;13748;52.240;6.002;2023-03-16T16:31:59;6.10;;;3.10;;
25950;SDS011;13748;52.240;6.002;2023-03-16T16:34:26;5.47;;;3.47;;
25950;SDS011;13748;52.240;6.002;2023-03-16T16:36:54;6.47;;;3.37;;
25950;SDS011;13748;52.240;6.002;2023-03-16T16:39:24;6.93;;;3.60;;
25950;SDS011;13748;52.240;6.002;2023-03-16T16:41:53;4.13;;;3.33;;
25950;SDS011;13748;52.240;6.002;2023-03-16T16:44:28;6.43;;;3.10;;
25950;SDS011;13748;52.240;6.002;2023-03-16T16:47:00;5.63;;;3.20;;
25950;SDS011;13748;52.240;6.002;2023-03-16T16:49:29;5.90;;;3.03;;
25950;SDS011;13748;52.240;6.002;2023-03-16T16:51:56;5.50;;;2.87;;
25950;SDS011;13748;52.240;6.002;2023-03-16T16:54:26;3.57;;;2.60;;
25950;SDS011;13748;52.240;6.002;2023-03-16T16:56:54;7.30;;;2.97;;
25950;SDS011;13748;52.240;6.002;2023-03-16T16:59:33;6.43;;;3.33;;
25950;SDS011;13748;52.240;6.002;2023-03-16T17:02:06;6.07;;;2.77;;
25950;SDS011;13748;52.240;6.002;2023-03-16T17:04:45;4.20;;;2.70;;
25950;SDS011;13748;52.240;6.002;2023-03-16T17:07:12;6.67;;;3.00;;
25950;SDS011;13748;52.240;6.002;2023-03-16T17:09:40;6.33;;;3.33;;
25950;SDS011;13748;52.240;6.002;2023-03-16T17:12:10;4.70;;;2.73;;
25950;SDS011;13748;52.240;6.002;2023-03-16T17:15:01;6.60;;;2.87;;
25950;SDS011;13748;52.240;6.002;2023-03-16T17:17:31;6.20;;;3.03;;
25950;SDS011;13748;52.240;6.002;2023-03-16T17:20:12;5.27;;;3.10;;